createdAt,value
2019-03-20T00:01:27.218Z,11.90
2019-03-20T00:04:01.750Z,15.77
2019-03-20T00:06:36.117Z,12.77
2019-03-20T00:09:12.835Z,10.63
2019-03-20T00:11:48.635Z,15.30
2019-03-20T00:14:22.444Z,14.23
2019-03-20T00:16:56.657Z,12.23
2019-03-20T00:19:29.952Z,15.87
2019-03-20T00:22:04.060Z,13.93
2019-03-20T00:24:48.038Z,15.87
2019-03-20T00:27:20.615Z,18.03
2019-03-20T00:29:54.079Z,18.73
2019-03-20T00:32:30.142Z,18.77
2019-03-20T00:35:06.608Z,21.17
2019-03-20T00:37:41.770Z,17.23
2019-03-20T00:40:18.313Z,24.03
2019-03-20T00:42:53.754Z,21.87
2019-03-20T00:45:26.375Z,21.30
2019-03-20T00:48:02.186Z,22.50
2019-03-20T00:50:35.438Z,20.63
2019-03-20T00:53:09.388Z,24.17
2019-03-20T00:55:42.986Z,26.17
2019-03-20T00:58:16.791Z,22.33
2019-03-20T01:00:51.827Z,21.33
2019-03-20T01:03:26.448Z,31.17
2019-03-20T01:05:59.597Z,28.70
2019-03-20T01:08:35.492Z,24.73
2019-03-20T01:11:10.116Z,23.93
2019-03-20T01:13:47.608Z,28.30
2019-03-20T01:16:21.413Z,24.43
2019-03-20T01:18:55.286Z,26.73
2019-03-20T01:21:31.276Z,25.53
2019-03-20T01:24:03.345Z,28.73
2019-03-20T01:26:37.881Z,24.33
2019-03-20T01:29:11.401Z,31.00
2019-03-20T01:31:51.827Z,28.87
2019-03-20T01:34:25.572Z,26.83
2019-03-20T01:36:59.023Z,30.40
2019-03-20T01:39:33.556Z,28.30
2019-03-20T01:42:08.065Z,27.63
2019-03-20T01:44:41.610Z,28.73
2019-03-20T01:47:16.495Z,28.67
2019-03-20T01:49:52.693Z,31.43
2019-03-20T01:52:26.215Z,25.73
2019-03-20T01:55:00.746Z,27.40
2019-03-20T01:57:34.267Z,29.70
2019-03-20T02:00:08.188Z,27.47
2019-03-20T02:02:41.310Z,27.80
2019-03-20T02:05:17.637Z,28.27
2019-03-20T02:07:50.383Z,25.03
2019-03-20T02:10:24.906Z,25.13
2019-03-20T02:12:58.685Z,27.90
2019-03-20T02:15:39.693Z,27.70
2019-03-20T02:18:14.561Z,26.97
2019-03-20T02:20:48.086Z,25.83
2019-03-20T02:23:23.633Z,26.13
2019-03-20T02:25:59.753Z,28.57
2019-03-20T02:28:33.154Z,34.07
2019-03-20T02:31:06.216Z,39.37
2019-03-20T02:33:38.509Z,28.03
2019-03-20T02:36:11.232Z,27.47
2019-03-20T02:38:44.478Z,30.40
2019-03-20T02:41:17.873Z,29.07
2019-03-20T02:43:50.784Z,31.47
2019-03-20T02:46:24.673Z,30.07
2019-03-20T02:49:01.868Z,36.33
2019-03-20T02:51:35.400Z,29.43
2019-03-20T02:54:09.156Z,33.57
2019-03-20T02:56:42.432Z,34.33
2019-03-20T02:59:16.355Z,32.53
2019-03-20T03:01:48.727Z,35.70
2019-03-20T03:04:23.001Z,35.77
2019-03-20T03:06:56.746Z,38.17
2019-03-20T03:09:30.039Z,30.93
2019-03-20T03:12:01.544Z,38.23
2019-03-20T03:14:35.294Z,38.37
2019-03-20T03:17:10.540Z,33.63
2019-03-20T03:19:48.639Z,36.33
2019-03-20T03:22:23.707Z,41.13
2019-03-20T03:25:00.623Z,36.80
2019-03-20T03:27:36.446Z,37.77
2019-03-20T03:30:10.858Z,38.23
2019-03-20T03:32:45.926Z,42.00
2019-03-20T03:35:20.328Z,41.63
2019-03-20T03:37:53.926Z,48.03
2019-03-20T03:40:27.447Z,42.50
2019-03-20T03:43:01.980Z,38.00
2019-03-20T03:45:35.295Z,53.20
2019-03-20T03:48:08.015Z,51.53
2019-03-20T03:50:40.545Z,47.10
2019-03-20T03:53:15.272Z,45.17
2019-03-20T03:55:49.078Z,57.53
2019-03-20T03:58:23.115Z,49.00
2019-03-20T04:00:55.621Z,53.33
2019-03-20T04:03:29.675Z,53.87
2019-03-20T04:06:02.456Z,50.23
2019-03-20T04:08:35.173Z,60.13
2019-03-20T04:11:09.042Z,53.33
2019-03-20T04:13:44.109Z,51.70
2019-03-20T04:16:20.341Z,51.83
2019-03-20T04:18:53.306Z,60.87
2019-03-20T04:21:27.834Z,51.47
2019-03-20T04:24:01.348Z,55.43
2019-03-20T04:26:34.879Z,46.97
2019-03-20T04:29:09.415Z,47.63
2019-03-20T04:31:42.945Z,45.47
2019-03-20T04:34:16.455Z,48.90
2019-03-20T04:36:50.786Z,49.53
2019-03-20T04:39:29.551Z,49.57
2019-03-20T04:42:03.074Z,55.80
2019-03-20T04:44:36.597Z,50.47
2019-03-20T04:47:10.117Z,45.90
2019-03-20T04:49:45.134Z,51.40
2019-03-20T04:52:17.913Z,45.00
2019-03-20T04:54:52.137Z,47.43
2019-03-20T04:57:25.219Z,49.77
2019-03-20T04:59:58.714Z,45.73
2019-03-20T05:02:33.541Z,40.30
2019-03-20T05:05:07.346Z,47.77
2019-03-20T05:07:40.947Z,43.97
2019-03-20T05:10:16.187Z,46.30
2019-03-20T05:12:49.178Z,43.23
2019-03-20T05:15:23.906Z,50.43
2019-03-20T05:17:57.427Z,51.47
2019-03-20T05:20:30.945Z,44.97
2019-03-20T05:23:05.476Z,46.37
2019-03-20T05:25:39.426Z,47.60
2019-03-20T05:28:14.058Z,37.87
2019-03-20T05:30:48.070Z,43.97
2019-03-20T05:33:22.592Z,54.10
2019-03-20T05:35:56.699Z,54.37
2019-03-20T05:38:31.668Z,52.00
2019-03-20T05:41:07.199Z,49.37
2019-03-20T05:43:40.718Z,51.17
2019-03-20T05:46:16.676Z,58.83
2019-03-20T05:48:49.612Z,59.77
2019-03-20T05:51:28.948Z,61.17
2019-03-20T05:54:02.885Z,60.53
2019-03-20T05:56:39.436Z,51.67
2019-03-20T05:59:15.688Z,54.97
2019-03-20T06:01:49.518Z,65.07
2019-03-20T06:04:23.032Z,56.30
2019-03-20T06:07:00.600Z,57.97
2019-03-20T06:09:36.145Z,60.70
2019-03-20T06:12:11.680Z,51.13
2019-03-20T06:14:47.940Z,52.53
2019-03-20T06:17:26.456Z,58.73
2019-03-20T06:20:00.442Z,54.90
2019-03-20T06:22:34.064Z,58.57
2019-03-20T06:25:07.363Z,62.63
2019-03-20T06:27:46.182Z,61.27
2019-03-20T06:30:22.033Z,59.23
2019-03-20T06:32:59.882Z,54.07
2019-03-20T06:35:34.600Z,58.17
2019-03-20T06:38:09.803Z,52.83
2019-03-20T06:40:42.376Z,56.37
2019-03-20T06:43:18.173Z,57.93
2019-03-20T06:45:51.212Z,66.37
2019-03-20T06:48:25.632Z,64.37
2019-03-20T06:50:58.740Z,60.83
2019-03-20T06:53:32.260Z,53.77
2019-03-20T06:56:04.770Z,58.47
2019-03-20T06:58:37.579Z,56.80
2019-03-20T07:01:30.633Z,56.13
2019-03-20T07:04:23.716Z,62.53
2019-03-20T07:07:19.456Z,58.53
2019-03-20T07:10:58.954Z,61.57
2019-03-20T07:13:33.162Z,64.77
2019-03-20T07:16:05.950Z,59.10
2019-03-20T07:18:39.550Z,58.10
2019-03-20T07:21:13.355Z,57.73
2019-03-20T07:23:47.244Z,59.73
2019-03-20T07:26:24.807Z,52.30
2019-03-20T07:28:58.328Z,59.17
2019-03-20T07:31:31.856Z,49.83
2019-03-20T07:34:05.045Z,53.50
2019-03-20T07:36:39.906Z,47.73
2019-03-20T07:39:13.436Z,58.03
2019-03-20T07:41:48.301Z,52.27
2019-03-20T07:44:22.487Z,45.87
2019-03-20T07:46:56.682Z,45.97
2019-03-20T07:49:29.103Z,49.13
2019-03-20T07:52:05.570Z,58.17
2019-03-20T07:54:38.593Z,51.83
2019-03-20T07:57:11.338Z,47.73
2019-03-20T07:59:44.626Z,43.60
2019-03-20T08:02:20.384Z,53.90
2019-03-20T08:04:54.700Z,48.07
2019-03-20T08:07:28.225Z,47.40
2019-03-20T08:10:02.756Z,45.50
2019-03-20T08:12:37.854Z,43.83
2019-03-20T08:15:12.824Z,40.13
2019-03-20T08:17:49.359Z,46.00
2019-03-20T08:20:25.414Z,40.67
2019-03-20T08:23:01.469Z,38.90
2019-03-20T08:25:34.991Z,45.57
2019-03-20T08:28:09.522Z,42.93
2019-03-20T08:30:45.754Z,41.23
2019-03-20T08:33:26.117Z,45.67
2019-03-20T08:35:59.099Z,36.10
2019-03-20T08:38:32.495Z,39.07
2019-03-20T08:41:06.505Z,41.33
2019-03-20T08:43:40.310Z,42.37
2019-03-20T08:46:14.730Z,35.70
2019-03-20T08:48:49.813Z,44.23
2019-03-20T08:51:25.354Z,40.03
2019-03-20T08:54:00.451Z,34.20
2019-03-20T08:56:34.418Z,35.97
2019-03-20T08:59:10.969Z,35.17
2019-03-20T09:01:44.543Z,35.33
2019-03-20T09:04:19.022Z,30.17
2019-03-20T09:06:52.548Z,39.70
2019-03-20T09:09:27.083Z,34.87
2019-03-20T09:12:00.979Z,33.83
2019-03-20T09:14:35.130Z,40.93
2019-03-20T09:17:12.589Z,38.30
2019-03-20T09:19:48.600Z,33.27
2019-03-20T09:22:20.294Z,30.17
2019-03-20T09:24:54.920Z,38.10
2019-03-20T09:27:29.805Z,34.00
2019-03-20T09:30:04.164Z,38.03
2019-03-20T09:32:37.859Z,30.30
2019-03-20T09:35:11.381Z,43.50
2019-03-20T09:37:52.363Z,37.03
2019-03-20T09:40:23.747Z,32.90
2019-03-20T09:42:59.019Z,39.13
2019-03-20T09:45:32.541Z,39.63
2019-03-20T09:48:08.079Z,41.37
2019-03-20T09:50:43.410Z,33.70
2019-03-20T09:53:19.673Z,41.07
2019-03-20T09:55:53.683Z,39.50
2019-03-20T09:58:28.226Z,40.93
2019-03-20T10:01:01.749Z,34.73
2019-03-20T10:03:35.268Z,39.10
2019-03-20T10:06:08.794Z,35.03
2019-03-20T10:08:53.757Z,47.57
2019-03-20T10:11:21.431Z,38.27
2019-03-20T10:13:54.402Z,42.07
2019-03-20T10:16:28.998Z,41.00
2019-03-20T10:19:02.457Z,45.33
2019-03-20T10:21:35.977Z,48.60
2019-03-20T10:24:08.492Z,40.67
2019-03-20T10:26:42.826Z,45.80
2019-03-20T10:29:16.543Z,38.03
2019-03-20T10:31:53.307Z,45.53
2019-03-20T10:34:27.109Z,37.80
2019-03-20T10:37:00.135Z,39.50
2019-03-20T10:39:34.116Z,31.67
2019-03-20T10:42:10.210Z,39.07
2019-03-20T10:44:44.381Z,36.17
2019-03-20T10:47:21.871Z,39.73
2019-03-20T10:49:54.824Z,34.03
2019-03-20T10:52:31.463Z,28.40
2019-03-20T10:55:04.310Z,32.20
2019-03-20T10:57:38.418Z,28.43
2019-03-20T11:00:14.379Z,34.60
2019-03-20T11:02:47.520Z,31.83
2019-03-20T11:05:21.004Z,29.50
2019-03-20T11:07:57.022Z,32.20
2019-03-20T11:10:31.441Z,21.70
2019-03-20T11:13:05.251Z,25.23
2019-03-20T11:15:39.120Z,32.20
2019-03-20T11:18:13.666Z,27.53
2019-03-20T11:20:48.653Z,31.63
2019-03-20T11:23:22.105Z,25.53
2019-03-20T11:25:55.705Z,31.63
2019-03-20T11:28:28.749Z,32.97
2019-03-20T11:31:02.497Z,27.80
2019-03-20T11:33:38.369Z,30.57
2019-03-20T11:36:11.135Z,28.83
2019-03-20T11:38:46.376Z,25.53
2019-03-20T11:41:22.840Z,26.67
2019-03-20T11:43:55.935Z,32.60
2019-03-20T11:46:30.471Z,27.30
2019-03-20T11:49:05.484Z,23.73
2019-03-20T11:51:46.891Z,29.90
2019-03-20T11:54:20.120Z,30.20
2019-03-20T11:56:57.136Z,29.93
2019-03-20T11:59:31.283Z,21.77
2019-03-20T12:02:04.728Z,28.13
2019-03-20T12:04:39.259Z,26.20
2019-03-20T12:07:16.454Z,27.27
2019-03-20T12:09:51.078Z,23.90
2019-03-20T12:12:25.899Z,25.43
2019-03-20T12:14:59.405Z,25.87
2019-03-20T12:17:33.517Z,23.03
2019-03-20T12:20:08.962Z,21.93
2019-03-20T12:22:42.359Z,22.60
2019-03-20T12:25:19.549Z,23.50
2019-03-20T12:27:53.450Z,25.47
2019-03-20T12:30:30.635Z,28.30
2019-03-20T12:33:05.172Z,25.17
2019-03-20T12:35:37.675Z,22.23
2019-03-20T12:38:14.797Z,18.30
2019-03-20T12:40:47.751Z,22.63
2019-03-20T12:43:20.260Z,20.43
2019-03-20T12:45:56.823Z,26.57
2019-03-20T12:48:30.040Z,24.53
2019-03-20T12:51:03.431Z,22.17
2019-03-20T12:53:38.668Z,20.40
2019-03-20T12:56:13.500Z,21.37
2019-03-20T12:58:47.449Z,18.23
2019-03-20T13:01:20.971Z,22.00
2019-03-20T13:03:54.913Z,22.07
2019-03-20T13:06:28.015Z,17.37
2019-03-20T13:09:03.512Z,18.77
2019-03-20T13:11:37.076Z,18.33
2019-03-20T13:14:10.339Z,20.93
2019-03-20T13:16:42.717Z,18.00
2019-03-20T13:19:34.817Z,14.20
2019-03-20T13:22:09.343Z,16.83
2019-03-20T13:24:45.908Z,22.03
2019-03-20T13:27:19.421Z,15.83
2019-03-20T13:29:56.518Z,23.70
2019-03-20T13:32:32.985Z,22.40
2019-03-20T13:35:09.070Z,18.73
2019-03-20T13:37:42.593Z,15.90
2019-03-20T13:40:16.115Z,16.53
2019-03-20T13:42:49.638Z,21.00
2019-03-20T13:45:24.177Z,19.43
2019-03-20T13:47:58.704Z,16.27
2019-03-20T13:50:32.223Z,24.53
2019-03-20T13:53:06.502Z,19.43
2019-03-20T13:55:46.861Z,19.55
2019-03-20T13:58:19.638Z,14.73
2019-03-20T14:00:55.698Z,20.80
2019-03-20T14:03:30.732Z,23.70
2019-03-20T14:06:03.451Z,21.30
2019-03-20T14:08:38.753Z,16.50
2019-03-20T14:11:12.517Z,17.90
2019-03-20T14:13:46.093Z,15.87
2019-03-20T14:16:22.024Z,15.13
2019-03-20T14:19:01.560Z,17.17
2019-03-20T14:21:34.678Z,16.40
2019-03-20T14:24:07.776Z,20.73
2019-03-20T14:26:40.715Z,22.70
2019-03-20T14:29:16.793Z,21.30
2019-03-20T14:31:51.203Z,18.70
2019-03-20T14:34:23.300Z,27.23
2019-03-20T14:36:56.817Z,26.53
2019-03-20T14:39:30.559Z,18.37
2019-03-20T14:42:04.890Z,19.37
2019-03-20T14:44:37.381Z,16.57
2019-03-20T14:47:11.913Z,18.00
2019-03-20T14:49:45.434Z,22.47
2019-03-20T14:52:19.788Z,19.83
2019-03-20T14:54:54.498Z,16.17
2019-03-20T14:57:29.650Z,16.77
2019-03-20T15:00:02.551Z,22.73
2019-03-20T15:02:37.083Z,20.63
2019-03-20T15:05:17.679Z,25.63
2019-03-20T15:07:51.426Z,16.97
2019-03-20T15:10:26.748Z,14.00
2019-03-20T15:13:02.285Z,21.93
2019-03-20T15:15:44.310Z,13.57
2019-03-20T15:18:17.402Z,19.40
2019-03-20T15:20:50.946Z,20.90
2019-03-20T15:23:27.774Z,20.00
2019-03-20T15:26:01.027Z,23.10
2019-03-20T15:28:39.570Z,25.87
2019-03-20T15:31:13.105Z,22.23
2019-03-20T15:33:47.629Z,20.33
2019-03-20T15:36:22.154Z,19.97
2019-03-20T15:38:56.136Z,18.00
2019-03-20T15:41:30.554Z,19.47
2019-03-20T15:44:04.362Z,23.90
2019-03-20T15:46:38.258Z,21.67
2019-03-20T15:49:11.765Z,22.93
2019-03-20T15:51:44.750Z,15.43
2019-03-20T15:54:18.823Z,23.60
2019-03-20T15:56:56.190Z,24.13
2019-03-20T15:59:31.296Z,19.97
2019-03-20T16:02:04.683Z,14.17
2019-03-20T16:04:38.901Z,15.37
2019-03-20T16:07:12.492Z,13.80
2019-03-20T16:09:49.583Z,16.63
2019-03-20T16:12:24.587Z,12.23
2019-03-20T16:14:58.424Z,15.00
2019-03-20T16:17:32.431Z,15.00
2019-03-20T16:20:06.168Z,15.83
2019-03-20T16:22:40.691Z,18.73
2019-03-20T16:25:14.216Z,13.97
2019-03-20T16:27:49.759Z,18.87
2019-03-20T16:30:25.326Z,11.97
2019-03-20T16:33:00.381Z,15.10
2019-03-20T16:35:34.360Z,14.47
2019-03-20T16:38:07.889Z,13.20
2019-03-20T16:40:41.908Z,12.60
2019-03-20T16:43:16.952Z,13.37
2019-03-20T16:45:50.484Z,15.60
2019-03-20T16:48:23.991Z,13.70
2019-03-20T16:50:57.516Z,16.93
2019-03-20T16:53:37.387Z,15.67
2019-03-20T16:56:12.204Z,14.73
2019-03-20T16:58:50.936Z,13.83
2019-03-20T17:01:27.786Z,17.00
2019-03-20T17:04:04.898Z,15.23
2019-03-20T17:06:40.328Z,16.23
2019-03-20T17:09:12.370Z,15.57
2019-03-20T17:11:49.990Z,13.37
2019-03-20T17:14:23.442Z,11.03
2019-03-20T17:17:15.800Z,16.50
2019-03-20T17:19:51.069Z,12.43
2019-03-20T17:22:25.696Z,12.80
2019-03-20T17:25:02.168Z,8.77
2019-03-20T17:27:37.605Z,8.00
2019-03-20T17:30:32.712Z,10.90
2019-03-20T17:33:09.587Z,9.63
2019-03-20T17:35:41.751Z,13.63
2019-03-20T17:38:15.649Z,9.20
2019-03-20T17:40:51.629Z,14.03
2019-03-20T17:43:30.760Z,15.10
2019-03-20T17:46:04.283Z,10.65
2019-03-20T17:48:39.842Z,10.20
2019-03-20T17:51:15.844Z,14.60
2019-03-20T17:53:50.475Z,13.13
2019-03-20T17:56:26.946Z,8.87
2019-03-20T17:59:01.559Z,8.53
2019-03-20T18:01:35.982Z,9.97
2019-03-20T18:04:10.399Z,10.27
2019-03-20T18:06:45.584Z,10.00
2019-03-20T18:09:21.127Z,10.67
2019-03-20T18:11:55.665Z,15.07
2019-03-20T18:14:32.796Z,12.00
2019-03-20T18:17:11.791Z,13.17
2019-03-20T18:19:45.521Z,15.10
2019-03-20T18:22:21.863Z,10.50
2019-03-20T18:24:58.659Z,13.87
2019-03-20T18:27:32.946Z,13.63
2019-03-20T18:30:08.939Z,9.30
2019-03-20T18:32:42.010Z,9.77
2019-03-20T18:35:15.538Z,10.20
2019-03-20T18:37:51.087Z,10.30
2019-03-20T18:40:27.842Z,9.30
2019-03-20T18:43:03.184Z,13.10
2019-03-20T18:45:37.297Z,9.33
2019-03-20T18:48:10.746Z,11.03
2019-03-20T18:50:44.745Z,14.13
2019-03-20T18:53:18.710Z,12.97
2019-03-20T18:55:56.816Z,11.07
2019-03-20T18:58:36.974Z,10.77
2019-03-20T19:01:21.457Z,19.87
2019-03-20T19:03:59.622Z,17.23
2019-03-20T19:06:36.629Z,11.93
2019-03-20T19:09:26.393Z,13.27
2019-03-20T19:12:08.755Z,11.63
2019-03-20T19:14:47.530Z,12.90
2019-03-20T19:17:26.357Z,14.30
2019-03-20T19:23:09.706Z,12.65
2019-03-20T19:25:44.364Z,10.90
2019-03-20T19:28:41.361Z,7.93
2019-03-20T19:31:20.442Z,6.00
2019-03-20T19:33:56.637Z,10.77
2019-03-20T19:36:33.994Z,12.03
2019-03-20T19:39:14.102Z,11.80
2019-03-20T19:41:54.673Z,12.73
2019-03-20T19:44:32.971Z,10.00
2019-03-20T19:47:14.980Z,12.63
2019-03-20T19:50:00.463Z,8.10
2019-03-20T19:52:35.535Z,10.93
2019-03-20T19:55:19.753Z,14.07
2019-03-20T19:58:00.305Z,14.07
2019-03-20T20:00:49.877Z,11.63
2019-03-20T20:03:31.483Z,9.70
2019-03-20T20:06:11.271Z,10.43
2019-03-20T20:08:45.428Z,10.30
2019-03-20T20:11:22.098Z,10.90
2019-03-20T20:13:56.215Z,12.53
2019-03-20T20:16:38.742Z,14.77
2019-03-20T20:19:14.780Z,14.93
2019-03-20T20:22:14.999Z,14.70
2019-03-20T20:24:50.714Z,20.67
2019-03-20T20:27:25.483Z,12.67
2019-03-20T20:30:00.779Z,18.03
2019-03-20T20:32:36.769Z,16.47
2019-03-20T20:35:13.444Z,16.10
2019-03-20T20:37:50.437Z,14.83
2019-03-20T20:40:23.950Z,14.87
2019-03-20T20:43:06.561Z,17.60
2019-03-20T20:45:47.161Z,19.40
2019-03-20T20:48:20.902Z,19.77
2019-03-20T20:50:55.207Z,18.50
2019-03-20T20:53:28.732Z,22.73
2019-03-20T20:56:22.712Z,20.77
2019-03-20T21:01:43.631Z,16.60
2019-03-20T21:04:21.194Z,18.33
2019-03-20T21:06:58.772Z,23.27
2019-03-20T21:09:33.736Z,19.23
2019-03-20T21:12:07.834Z,20.17
2019-03-20T21:14:45.379Z,20.40
2019-03-20T21:17:27.073Z,23.00
2019-03-20T21:20:00.522Z,19.97
2019-03-20T21:23:08.373Z,20.73
2019-03-20T21:25:43.910Z,20.47
2019-03-20T21:29:00.075Z,27.63
2019-03-20T21:31:40.473Z,19.20
2019-03-20T21:34:59.098Z,27.83
2019-03-20T21:38:08.977Z,20.10
2019-03-20T21:41:09.112Z,22.10
2019-03-20T21:44:31.464Z,24.30
2019-03-20T21:47:46.488Z,28.03
2019-03-20T21:51:25.503Z,25.73
2019-03-20T21:54:44.160Z,19.33
2019-03-20T21:57:52.347Z,23.77
2019-03-20T22:01:23.170Z,22.00
2019-03-20T22:04:00.304Z,24.73
2019-03-20T22:07:23.671Z,23.30
2019-03-20T22:10:38.618Z,29.47
2019-03-20T22:13:46.429Z,26.87
2019-03-20T22:17:04.094Z,26.50
2019-03-20T22:20:37.083Z,24.90
2019-03-20T22:23:48.968Z,26.55
2019-03-20T22:26:54.646Z,29.07
2019-03-20T22:29:31.846Z,26.07
2019-03-20T22:32:57.436Z,22.97
2019-03-20T22:35:51.924Z,26.20
2019-03-20T22:38:48.660Z,22.27
2019-03-20T22:41:48.485Z,20.70
2019-03-20T22:44:22.495Z,27.10
2019-03-20T22:47:50.169Z,25.27
2019-03-20T22:51:12.302Z,25.30
2019-03-20T22:54:21.801Z,26.33
2019-03-20T22:57:33.513Z,27.97
2019-03-20T23:00:07.431Z,26.13
2019-03-20T23:02:50.456Z,26.30
2019-03-20T23:05:28.075Z,27.03
2019-03-20T23:08:01.346Z,25.93
2019-03-20T23:10:36.588Z,25.30
2019-03-20T23:13:18.487Z,24.07
2019-03-20T23:15:47.514Z,21.23
2019-03-20T23:18:21.885Z,26.63
2019-03-20T23:20:57.426Z,24.20
2019-03-20T23:23:33.593Z,31.47
2019-03-20T23:26:08.511Z,26.37
2019-03-20T23:28:42.843Z,25.67
2019-03-20T23:31:18.591Z,28.60
2019-03-20T23:33:55.134Z,29.97
2019-03-20T23:36:30.195Z,26.00
2019-03-20T23:39:03.870Z,25.47
2019-03-20T23:41:36.728Z,33.85
2019-03-20T23:44:10.230Z,29.63
2019-03-20T23:46:44.762Z,27.57
2019-03-20T23:49:21.683Z,29.57
2019-03-20T23:51:55.845Z,29.53
2019-03-20T23:54:37.448Z,26.97
2019-03-20T23:57:10.968Z,28.77
2019-03-20T23:59:45.707Z,30.63
